Minneapolis, MN

1:25 PM CDT on August 20, 2014 (GMT -0500)
North Loop | Change Station
CLOSE
Current Station
Personal Weather Station
Location: Minneapolis, MN
Elevation: 823 ft
Nearby Weather Stations

Elev 823 ft 44.99 °N, 93.28 °W | Updated 4 seconds ago

Mostly Cloudy
Mostly Cloudy
83.5 °F
Feels Like 85 °F
N
0.7
Wind Variable Wind from SE
Gusts 2.2 mph

Today
High -- | Low -- °F
--% Chance of Precip.
Yesterday
High -- | Low -- °F
Precip. -- in
6:20 AM 8:11 PM
Waning Crescent, 20% visible
Pressure 29.83 in
Visibility 10.0 miles
Clouds Mostly Cloudy 2500 ft
Heat Index 85 °F
Dew Point 65 °F
Humidity 53%
Rainfall 0.00 in
Snow Depth Not available.
UV 5 out of 12
Pollen 8.90 out of 12
Ozone Good
PM2.5 Good
Flu Activity Not available.
METAR KMIC 201753Z COR 13010KT 10SM BKN025 25/18 A2985 RMK AO2 SLP102 T02500178 10267 20183 55000

More Conditions Fewer Conditions

Pressure 29.83 in
Visibility 10.0 miles
Clouds Mostly Cloudy 2500 ft
Heat Index 85 °F
Dew Point 65 °F
Humidity 53%
Rainfall 0.00 in
Snow Depth Not available.
UV 5 out of 12
Pollen 8.90 out of 12
Ozone Good
PM2.5 Good
Flu Activity Not available.
METAR KMIC 201753Z COR 13010KT 10SM BKN025 25/18 A2985 RMK AO2 SLP102 T02500178 10267 20183 55000

More Conditions Fewer Conditions

10-Day Weather Forecast

Almanac

Astronomy

Aug. 20, 2014 Rise Set
Actual Time 6:20 AM CDT 8:11 PM CDT
Civil Twilight 5:49 AM CDT 8:42 PM CDT
Nautical Twilight 5:10 AM CDT 9:20 PM CDT
Astronomical Twilight 4:29 AM CDT 10:02 PM CDT
Moon 1:56 AM CDT 5:01 PM CDT
Length of Visible Light 14h 53m
Length of Day
13h 50m
Tomorrow will be 2m 52s shorter.
Waning Crescent, 20% of the Moon is Illuminated
Today
Waning Crescent
Aug 25
New
Sep 2
First Quarter
Sep 8
Full
Sep 15
Last Quarter

Today's Extremes

State Highs State Lows

Community

WunderPhotos

Upload Photos

1,745,704 photos uploaded!

WunderBlogs® & News

Nearby

Air Quality

  Air Quality AQ Index Pollutant
Yesterday Good
OZONE
Yesterday Good
PM2.5
Current Good
OZONE
Current Good
PM2.5
Wednesday Moderate
OZONE
Wednesday Good
PM2.5
Thursday Good
PM2.5
Thursday Good
OZONE
Friday Moderate
OZONE
Friday Good
PM2.5
Saturday Good
OZONE
Saturday Good
PM2.5
Sunday Good
OZONE
Sunday Good
PM2.5
Monday Good
OZONE
Monday Good
PM2.5

Snow Depth

Station Depth Elevation
No new snow has been reported.

Earthquake Activity

City Distance Mag. Time & Date
No recent earthquake activity has been reported nearby.
Minimum magnitude displayed is 2.5.

Coastal Water Temperatures

Place Temperature
No Stations Reporting

Nearby Weather Stations